Time;durP1;ratioP1;P1;durP2;ratioP2;P2;SDS_P1;SDS_P2;PMS_P1;PMS_P2;Temp;Humidity;BMP_temperature;BMP_pressure;BME280_temperature;BME280_humidity;BME280_pressure;Samples;Min_cycle;Max_cycle;Signal;HPM_P1;HPM_P2
2022/10/07 00:01:57;;;;;;;11.02;3.90;;;12.20;99.90;;;;;;5073278;28;20040;-67
2022/10/07 00:04:23;;;;;;;15.27;4.22;;;12.20;99.90;;;;;;5064579;28;20421;-67
2022/10/07 00:06:48;;;;;;;16.65;4.18;;;12.20;99.90;;;;;;5052826;28;20021;-67
2022/10/07 00:09:14;;;;;;;13.95;5.68;;;12.20;99.90;;;;;;5056488;28;20115;-67
2022/10/07 00:11:40;;;;;;;17.88;4.50;;;12.20;99.90;;;;;;5072309;28;20032;-67
2022/10/07 00:14:06;;;;;;;17.90;5.22;;;12.20;99.90;;;;;;5066210;28;20021;-68
2022/10/07 00:16:37;;;;;;;13.18;5.28;;;12.10;99.90;;;;;;5052423;28;20457;-67
2022/10/07 00:19:06;;;;;;;18.48;5.38;;;12.10;99.90;;;;;;5052949;28;20065;-68
2022/10/07 00:21:34;;;;;;;18.17;5.03;;;12.00;99.90;;;;;;5061927;28;20039;-67
2022/10/07 00:24:00;;;;;;;14.50;4.28;;;12.00;99.90;;;;;;5063394;28;20112;-67
2022/10/07 00:26:28;;;;;;;21.13;5.03;;;12.00;99.90;;;;;;5052180;28;20448;-67
2022/10/07 00:28:54;;;;;;;16.05;4.65;;;11.90;99.90;;;;;;5051819;28;20022;-67
2022/10/07 00:31:26;;;;;;;11.73;4.95;;;12.00;99.90;;;;;;5069083;28;20540;-67
2022/10/07 00:33:53;;;;;;;14.27;4.53;;;12.00;99.90;;;;;;5072776;28;20104;-67
2022/10/07 00:36:22;;;;;;;14.75;4.20;;;12.00;99.90;;;;;;5071128;28;20023;-67
2022/10/07 00:39:03;;;;;;;13.13;4.55;;;12.00;99.90;;;;;;5060313;28;20025;-67
2022/10/07 00:41:39;;;;;;;13.85;4.55;;;11.90;99.90;;;;;;5072173;28;20029;-67
2022/10/07 00:44:29;;;;;;;15.85;4.50;;;12.00;99.90;;;;;;5072064;28;20020;-68
2022/10/07 00:47:22;;;;;;;18.20;4.95;;;12.00;99.90;;;;;;5071564;28;20481;-67
2022/10/07 00:49:55;;;;;;;22.05;5.18;;;11.90;99.90;;;;;;5071135;28;20032;-67
2022/10/07 00:52:22;;;;;;;;;;;11.80;99.90;;;;;;5072791;28;20475;-68
2022/10/07 00:54:51;;;;;;;16.05;4.47;;;11.80;99.90;;;;;;5055513;28;19909;-68
2022/10/07 00:57:20;;;;;;;15.70;5.20;;;11.80;99.90;;;;;;5052525;28;20017;-67
2022/10/07 00:59:46;;;;;;;17.48;4.38;;;11.80;99.90;;;;;;5052253;28;20476;-67
2022/10/07 01:02:11;;;;;;;19.67;4.80;;;11.70;99.90;;;;;;5068785;28;20034;-67
2022/10/07 01:04:38;;;;;;;13.50;3.80;;;11.70;99.90;;;;;;5057361;28;20083;-67
2022/10/07 01:07:03;;;;;;;15.23;4.45;;;11.70;99.90;;;;;;5052466;28;20504;-67
2022/10/07 01:09:29;;;;;;;18.95;4.30;;;11.70;99.90;;;;;;5049911;28;20029;-67
2022/10/07 01:11:58;;;;;;;13.95;4.35;;;11.70;99.90;;;;;;5052065;28;20079;-67
2022/10/07 01:14:53;;;;;;;19.48;4.22;;;11.70;99.90;;;;;;5050467;28;20065;-68
2022/10/07 01:17:44;;;;;;;13.70;3.85;;;11.60;99.90;;;;;;5064818;28;20033;-68
2022/10/07 01:20:13;;;;;;;16.80;3.78;;;11.60;99.90;;;;;;5071204;28;20040;-68
2022/10/07 01:23:03;;;;;;;15.82;4.90;;;11.60;99.90;;;;;;5068986;28;20025;-68
2022/10/07 01:25:45;;;;;;;15.82;4.45;;;11.60;99.90;;;;;;5070852;28;20035;-68
2022/10/07 01:28:21;;;;;;;13.25;4.18;;;11.50;99.90;;;;;;5070772;28;20085;-68
2022/10/07 01:30:51;;;;;;;17.58;4.43;;;11.60;99.90;;;;;;5056236;28;20358;-67
2022/10/07 01:33:26;;;;;;;15.32;4.32;;;11.50;99.90;;;;;;5053454;28;20440;-68
2022/10/07 01:35:55;;;;;;;15.32;3.90;;;11.50;99.90;;;;;;5069827;28;20457;-67
2022/10/07 01:38:25;;;;;;;19.83;4.75;;;11.50;99.90;;;;;;5070647;28;20016;-68
2022/10/07 01:41:03;;;;;;;22.50;4.75;;;11.50;99.90;;;;;;5072189;28;20039;-67
2022/10/07 01:43:30;;;;;;;24.85;4.68;;;11.50;99.90;;;;;;5072096;28;20017;-67
2022/10/07 01:45:56;;;;;;;15.18;3.90;;;11.60;99.90;;;;;;5070946;28;20032;-68
2022/10/07 01:48:22;;;;;;;13.50;4.15;;;11.50;99.90;;;;;;5057570;28;20025;-69
2022/10/07 01:50:49;;;;;;;17.40;4.97;;;11.50;99.90;;;;;;5051944;28;20108;-69
2022/10/07 01:53:30;;;;;;;18.55;4.57;;;11.50;99.90;;;;;;5062017;28;20434;-68
2022/10/07 01:56:05;;;;;;;18.08;4.55;;;11.40;99.90;;;;;;5071963;28;20039;-68
2022/10/07 01:58:52;;;;;;;16.48;4.40;;;11.50;99.90;;;;;;5072071;28;20107;-67
2022/10/07 02:01:32;;;;;;;14.73;4.25;;;11.50;99.90;;;;;;5055989;28;20037;-67
2022/10/07 02:04:30;;;;;;;14.48;4.13;;;11.40;99.90;;;;;;5061213;28;20039;-68
2022/10/07 02:07:16;;;;;;;14.60;4.07;;;11.40;99.90;;;;;;5068915;28;20048;-68
2022/10/07 02:09:53;;;;;;;18.95;4.28;;;11.40;99.90;;;;;;5051151;28;20100;-68
2022/10/07 02:12:21;;;;;;;19.75;4.55;;;11.40;99.90;;;;;;5051966;28;20032;-68
2022/10/07 02:14:55;;;;;;;16.77;4.10;;;11.40;99.90;;;;;;5051160;28;20043;-68
2022/10/07 02:17:23;;;;;;;19.05;4.13;;;11.40;99.90;;;;;;5052815;28;20037;-68
2022/10/07 02:19:53;;;;;;;16.55;4.22;;;11.40;99.90;;;;;;5063441;28;20170;-68
2022/10/07 02:22:23;;;;;;;12.35;4.05;;;11.40;99.90;;;;;;5074341;28;20032;-68
2022/10/07 02:24:53;;;;;;;15.40;4.18;;;11.30;99.90;;;;;;5067065;28;20471;-68
2022/10/07 02:27:23;;;;;;;20.15;4.18;;;11.30;99.90;;;;;;5055354;28;20021;-68
2022/10/07 02:29:53;;;;;;;19.15;4.50;;;11.30;99.90;;;;;;5054358;28;20465;-67
2022/10/07 02:32:22;;;;;;;15.38;3.92;;;11.30;99.90;;;;;;5057693;28;20111;-68
2022/10/07 02:34:53;;;;;;;19.23;4.65;;;11.30;99.90;;;;;;5055092;28;20029;-68
2022/10/07 02:37:25;;;;;;;17.50;3.97;;;11.30;99.90;;;;;;5055029;28;20071;-67
2022/10/07 02:39:52;;;;;;;17.52;4.03;;;11.30;99.90;;;;;;5056293;28;20378;-68
2022/10/07 02:42:37;;;;;;;16.95;4.70;;;11.30;99.90;;;;;;5052958;28;20299;-68
2022/10/07 02:45:06;;;;;;;11.38;3.53;;;11.30;99.90;;;;;;5053603;28;20083;-67
2022/10/07 02:47:52;;;;;;;23.45;4.20;;;11.30;99.90;;;;;;5053541;28;20398;-67
2022/10/07 02:50:24;;;;;;;14.80;4.13;;;11.20;99.90;;;;;;5053883;28;20021;-68
2022/10/07 02:52:54;;;;;;;15.30;4.97;;;11.20;99.90;;;;;;5054683;28;20039;-68
2022/10/07 02:55:23;;;;;;;11.85;4.00;;;11.20;99.90;;;;;;5054474;28;20024;-67
2022/10/07 02:57:54;;;;;;;15.60;4.57;;;11.20;99.90;;;;;;5053600;28;20358;-67
2022/10/07 03:00:20;;;;;;;17.42;4.05;;;11.20;99.90;;;;;;5088378;28;20031;-68
2022/10/07 03:02:53;;;;;;;21.70;4.55;;;11.20;99.90;;;;;;5074865;28;20131;-68
2022/10/07 03:05:20;;;;;;;14.55;4.30;;;11.10;99.90;;;;;;5065507;28;20055;-68
2022/10/07 03:07:54;;;;;;;17.77;3.50;;;11.10;99.90;;;;;;5053254;28;20104;-68
2022/10/07 03:10:20;;;;;;;19.13;3.88;;;11.10;99.90;;;;;;5054172;28;20021;-68
2022/10/07 03:12:46;;;;;;;19.08;3.50;;;11.10;99.90;;;;;;5053951;28;20025;-68
2022/10/07 03:15:11;;;;;;;19.45;4.18;;;11.10;99.90;;;;;;5053220;28;20044;-68
2022/10/07 03:17:39;;;;;;;15.50;3.60;;;11.10;99.90;;;;;;5053839;28;20033;-68
2022/10/07 03:20:06;;;;;;;14.18;4.70;;;11.10;99.90;;;;;;5053574;28;20024;-68
2022/10/07 03:22:31;;;;;;;12.45;4.10;;;11.10;99.90;;;;;;5054116;28;20078;-68
2022/10/07 03:24:57;;;;;;;11.82;4.30;;;11.10;99.90;;;;;;5067148;28;20107;-68
2022/10/07 03:27:22;;;;;;;18.00;4.47;;;11.00;99.90;;;;;;5091794;28;20058;-68
2022/10/07 03:29:49;;;;;;;19.73;5.38;;;11.10;99.90;;;;;;5072718;28;20023;-68
2022/10/07 03:32:15;;;;;;;18.02;4.20;;;11.00;99.90;;;;;;5071370;28;20485;-68
2022/10/07 03:34:40;;;;;;;14.25;4.75;;;11.00;99.90;;;;;;5073940;28;20033;-68
2022/10/07 03:37:06;;;;;;;15.98;3.92;;;11.00;99.90;;;;;;5074056;28;20477;-68
2022/10/07 03:39:32;;;;;;;18.65;4.15;;;11.00;99.90;;;;;;5059542;28;20429;-68
2022/10/07 03:41:57;;;;;;;16.00;4.10;;;11.00;99.90;;;;;;5053341;28;20233;-68
2022/10/07 03:44:23;;;;;;;22.08;4.57;;;11.00;99.90;;;;;;5053475;28;20033;-68
2022/10/07 03:46:50;;;;;;;20.00;4.07;;;11.00;99.90;;;;;;5058876;28;20086;-68
2022/10/07 03:49:16;;;;;;;15.80;3.83;;;11.00;99.90;;;;;;5053464;28;20023;-68
2022/10/07 03:51:42;;;;;;;19.23;5.05;;;10.90;99.90;;;;;;5053299;28;20025;-68
2022/10/07 03:54:08;;;;;;;14.73;3.47;;;10.90;99.90;;;;;;5053744;28;20051;-68
2022/10/07 03:56:34;;;;;;;16.15;5.10;;;11.00;99.90;;;;;;5053131;28;20461;-68
2022/10/07 03:59:00;;;;;;;12.65;4.07;;;11.00;99.90;;;;;;5053233;28;20032;-68
2022/10/07 04:01:27;;;;;;;21.17;4.07;;;10.90;99.90;;;;;;5059016;28;20489;-68
2022/10/07 04:03:53;;;;;;;20.35;4.20;;;10.90;99.90;;;;;;5073715;28;20024;-67
2022/10/07 04:06:18;;;;;;;19.20;4.45;;;10.80;99.90;;;;;;5060586;28;20024;-68
2022/10/07 04:08:44;;;;;;;13.65;4.53;;;10.90;99.90;;;;;;5053551;28;20362;-68
2022/10/07 04:11:09;;;;;;;12.85;4.03;;;10.90;99.90;;;;;;5071995;28;20032;-67
2022/10/07 04:13:35;;;;;;;12.48;3.38;;;10.90;99.90;;;;;;5063794;28;20413;-68
2022/10/07 04:16:08;;;;;;;20.13;4.25;;;10.90;99.90;;;;;;5052984;28;20039;-68
2022/10/07 04:18:34;;;;;;;14.75;3.45;;;10.90;99.90;;;;;;5079626;28;20024;-68
2022/10/07 04:21:00;;;;;;;13.82;3.28;;;10.90;99.90;;;;;;5057857;28;20040;-68
2022/10/07 04:23:26;;;;;;;14.18;4.47;;;10.90;99.90;;;;;;5052879;28;20123;-67
2022/10/07 04:25:52;;;;;;;17.63;4.20;;;10.90;99.90;;;;;;5052911;28;20025;-68
2022/10/07 04:28:20;;;;;;;15.30;3.85;;;10.90;99.90;;;;;;5052527;28;20021;-68
2022/10/07 04:30:50;;;;;;;17.23;3.78;;;10.90;99.90;;;;;;5052603;28;20037;-67
2022/10/07 04:33:17;;;;;;;12.85;3.83;;;10.90;99.90;;;;;;5065099;28;20052;-67
2022/10/07 04:35:43;;;;;;;18.88;4.57;;;10.90;99.90;;;;;;5053044;28;20036;-68
2022/10/07 04:38:10;;;;;;;21.65;3.88;;;10.90;99.90;;;;;;5052185;28;20025;-67
2022/10/07 04:40:41;;;;;;;16.85;3.75;;;10.90;99.90;;;;;;5052218;28;20051;-68
2022/10/07 04:43:25;;;;;;;17.35;4.13;;;10.80;99.90;;;;;;5051729;28;20021;-68
2022/10/07 04:46:02;;;;;;;18.65;3.88;;;10.80;99.90;;;;;;5052548;28;20029;-68
2022/10/07 04:48:28;;;;;;;16.00;3.50;;;10.80;99.90;;;;;;5051875;28;20021;-68
2022/10/07 04:50:55;;;;;;;15.95;3.42;;;10.80;99.90;;;;;;5053956;28;20382;-68
2022/10/07 04:53:21;;;;;;;22.38;3.80;;;10.80;99.90;;;;;;5052298;28;20481;-68
2022/10/07 04:55:48;;;;;;;12.90;3.67;;;10.80;99.90;;;;;;5052438;28;20059;-68
2022/10/07 04:58:15;;;;;;;13.05;3.88;;;10.80;99.90;;;;;;5050810;28;20033;-68
2022/10/07 05:00:43;;;;;;;18.23;3.60;;;10.80;99.90;;;;;;5052670;28;20037;-68
2022/10/07 05:03:09;;;;;;;18.02;3.40;;;10.80;99.90;;;;;;5067782;28;20021;-68
2022/10/07 05:05:37;;;;;;;18.20;4.00;;;10.80;99.90;;;;;;5072465;28;20033;-68
2022/10/07 05:08:02;;;;;;;18.63;4.07;;;10.90;99.90;;;;;;5071456;28;20024;-68
2022/10/07 05:10:28;;;;;;;18.02;3.72;;;10.80;99.90;;;;;;5065777;28;20029;-68
2022/10/07 05:12:54;;;;;;;18.15;3.90;;;10.80;99.90;;;;;;5051473;28;20474;-68
2022/10/07 05:15:20;;;;;;;16.52;3.88;;;10.70;99.90;;;;;;5051659;28;20374;-69
2022/10/07 05:17:45;;;;;;;17.90;3.67;;;10.80;99.90;;;;;;5086438;28;20024;-68
2022/10/07 05:20:11;;;;;;;18.17;3.88;;;10.80;99.90;;;;;;5092138;28;20452;-68
2022/10/07 05:22:37;;;;;;;13.45;3.70;;;10.80;99.90;;;;;;5092479;28;20093;-68
2022/10/07 05:25:03;;;;;;;13.00;3.72;;;10.80;99.90;;;;;;5057341;28;20082;-67
2022/10/07 05:27:28;;;;;;;17.35;4.10;;;10.80;99.90;;;;;;5052113;28;20029;-68
2022/10/07 05:29:54;;;;;;;19.25;4.38;;;10.80;99.90;;;;;;5053984;28;20032;-68
2022/10/07 05:32:20;;;;;;;14.82;3.35;;;10.80;99.90;;;;;;5069649;28;20085;-68
2022/10/07 05:34:45;;;;;;;17.50;4.50;;;10.80;99.90;;;;;;5078434;28;20028;-68
2022/10/07 05:37:11;;;;;;;12.73;3.60;;;10.80;99.90;;;;;;5092215;28;20073;-68
2022/10/07 05:39:37;;;;;;;18.50;4.22;;;10.80;99.90;;;;;;5090349;28;20138;-68
2022/10/07 05:42:03;;;;;;;18.30;3.55;;;10.70;99.90;;;;;;5058428;28;20123;-68
2022/10/07 05:44:32;;;;;;;14.25;3.70;;;10.70;99.90;;;;;;5049309;28;20023;-67
2022/10/07 05:46:58;;;;;;;17.05;3.97;;;10.70;99.90;;;;;;5056569;28;20028;-67
2022/10/07 05:49:24;;;;;;;15.10;3.70;;;10.60;99.90;;;;;;5051881;28;20025;-67
2022/10/07 05:51:50;;;;;;;10.32;3.33;;;10.70;99.90;;;;;;5070133;28;20415;-67
2022/10/07 05:54:17;;;;;;;17.30;3.47;;;10.70;99.90;;;;;;5066819;28;20041;-67
2022/10/07 05:56:42;;;;;;;13.18;3.10;;;10.70;99.90;;;;;;5056082;28;20495;-67
2022/10/07 05:59:09;;;;;;;14.30;3.45;;;10.70;99.90;;;;;;5055299;28;20049;-67
2022/10/07 06:01:35;;;;;;;17.90;3.67;;;10.80;99.90;;;;;;5069659;28;20059;-66
2022/10/07 06:04:01;;;;;;;12.93;3.45;;;10.70;99.90;;;;;;5095899;28;20067;-67
2022/10/07 06:06:28;;;;;;;18.25;4.65;;;10.70;99.90;;;;;;5094389;28;20548;-67
2022/10/07 06:13:06;;;;;;;21.95;4.78;;;10.70;99.90;;;;;;5094878;28;20016;-67
2022/10/07 06:14:24;;;;;;;16.65;5.03;;;10.70;99.90;;;;;;5062517;28;20139;-67
2022/10/07 06:16:49;;;;;;;13.23;4.40;;;10.70;99.90;;;;;;5056215;28;20470;-67
2022/10/07 06:19:21;;;;;;;21.40;6.90;;;10.70;99.90;;;;;;5069032;28;20102;-67
2022/10/07 06:21:47;;;;;;;33.13;13.63;;;10.70;99.90;;;;;;5068399;28;20527;-67
2022/10/07 06:24:13;;;;;;;36.17;19.27;;;10.60;99.90;;;;;;5074830;28;20063;-67
2022/10/07 06:26:41;;;;;;;34.65;14.98;;;10.70;99.90;;;;;;5075380;28;20067;-67
2022/10/07 06:29:07;;;;;;;33.95;17.10;;;10.60;99.90;;;;;;5085077;28;20024;-67
2022/10/07 06:31:33;;;;;;;34.60;13.75;;;10.60;99.90;;;;;;5092176;28;20488;-67
2022/10/07 06:33:58;;;;;;;25.08;9.75;;;10.70;99.90;;;;;;5054135;28;20131;-67
2022/10/07 06:36:24;;;;;;;20.55;7.90;;;10.60;99.90;;;;;;5086449;28;20086;-67
2022/10/07 06:38:51;;;;;;;32.92;7.57;;;10.60;99.90;;;;;;5095034;28;20028;-67
2022/10/07 06:41:17;;;;;;;17.83;6.30;;;10.60;99.90;;;;;;5094466;28;20031;-66
2022/10/07 06:43:43;;;;;;;25.67;6.65;;;10.70;99.90;;;;;;5095110;28;20037;-67
2022/10/07 06:46:13;;;;;;;29.88;6.25;;;10.70;99.90;;;;;;5094456;28;20024;-67
2022/10/07 06:48:40;;;;;;;23.63;6.55;;;10.60;99.90;;;;;;5057633;28;20102;-67
2022/10/07 06:51:07;;;;;;;22.30;5.88;;;10.70;99.90;;;;;;5054712;28;20393;-67
2022/10/07 06:53:33;;;;;;;26.13;5.95;;;10.70;99.90;;;;;;5055515;28;20045;-67
2022/10/07 06:56:03;;;;;;;20.55;5.13;;;10.70;99.90;;;;;;5074516;28;20099;-67
2022/10/07 06:58:29;;;;;;;21.70;5.15;;;10.70;99.90;;;;;;5062872;28;20024;-67
2022/10/07 07:00:56;;;;;;;20.08;4.55;;;10.60;99.90;;;;;;5063496;28;20088;-68
2022/10/07 07:03:22;;;;;;;16.75;4.38;;;10.70;99.90;;;;;;5058808;28;20539;-67
2022/10/07 07:05:50;;;;;;;19.63;4.35;;;10.70;99.90;;;;;;5060556;28;20418;-67
2022/10/07 07:08:19;;;;;;;20.92;3.90;;;10.70;99.90;;;;;;5054484;28;20162;-67
2022/10/07 07:10:45;;;;;;;11.88;3.30;;;10.70;99.90;;;;;;5067822;28;20376;-67
2022/10/07 07:13:11;;;;;;;16.00;4.15;;;10.70;99.90;;;;;;5073017;28;20409;-67
2022/10/07 07:15:38;;;;;;;14.85;3.63;;;10.70;99.90;;;;;;5065729;28;20029;-68
2022/10/07 07:18:06;;;;;;;18.38;4.70;;;10.80;99.90;;;;;;5060457;28;20024;-68
2022/10/07 07:20:37;;;;;;;16.42;4.20;;;10.80;99.90;;;;;;5064521;28;20057;-68
2022/10/07 07:23:08;;;;;;;14.32;3.67;;;10.90;99.90;;;;;;5063102;28;20104;-68
2022/10/07 07:25:38;;;;;;;14.97;4.10;;;10.80;99.90;;;;;;5058524;28;20155;-68
2022/10/07 07:28:06;;;;;;;12.65;3.90;;;10.90;99.90;;;;;;5068846;28;20121;-68
2022/10/07 07:30:32;;;;;;;19.30;4.35;;;10.90;99.90;;;;;;5061292;28;20101;-67
2022/10/07 07:32:58;;;;;;;18.10;3.60;;;10.90;99.90;;;;;;5061395;28;20013;-68
2022/10/07 07:35:25;;;;;;;20.75;3.95;;;11.00;99.90;;;;;;5064366;28;20392;-68
2022/10/07 07:37:53;;;;;;;16.90;4.45;;;11.00;99.90;;;;;;5059045;28;20465;-69
2022/10/07 07:40:19;;;;;;;17.30;3.72;;;11.10;99.90;;;;;;5083466;28;20077;-68
2022/10/07 07:42:46;;;;;;;20.65;3.80;;;11.10;99.90;;;;;;5075555;28;20036;-68
2022/10/07 07:45:11;;;;;;;13.68;4.30;;;11.20;99.90;;;;;;5073268;28;20107;-68
2022/10/07 07:47:38;;;;;;;13.73;3.63;;;11.30;99.90;;;;;;5056740;28;20111;-69
2022/10/07 07:50:05;;;;;;;15.82;3.65;;;11.40;99.90;;;;;;5064002;28;20409;-68
2022/10/07 07:52:31;;;;;;;19.45;3.72;;;11.40;99.90;;;;;;5056606;28;20098;-68
2022/10/07 07:54:58;;;;;;;23.10;4.25;;;11.50;99.90;;;;;;5057786;28;20032;-68
2022/10/07 07:57:25;;;;;;;16.08;4.47;;;11.50;99.90;;;;;;5060505;28;20100;-68
2022/10/07 07:59:52;;;;;;;14.25;3.40;;;11.60;99.90;;;;;;5058106;28;20481;-68
2022/10/07 08:02:19;;;;;;;18.02;3.55;;;11.70;99.90;;;;;;5060365;28;20025;-68
2022/10/07 08:04:45;;;;;;;19.77;4.15;;;11.80;99.90;;;;;;5058971;28;20034;-68
2022/10/07 08:07:11;;;;;;;17.75;2.90;;;11.90;99.90;;;;;;5068818;28;20029;-68
2022/10/07 08:09:38;;;;;;;14.18;3.38;;;12.00;99.90;;;;;;5061755;28;20048;-68
2022/10/07 08:12:04;;;;;;;13.10;3.80;;;12.20;99.90;;;;;;5064000;28;20402;-68
2022/10/07 08:14:30;;;;;;;15.55;3.55;;;12.20;99.90;;;;;;5061602;28;20028;-68
2022/10/07 08:16:58;;;;;;;18.45;3.50;;;12.30;99.90;;;;;;5064128;28;20036;-69
2022/10/07 08:19:24;;;;;;;13.55;3.45;;;12.40;99.90;;;;;;5068336;28;20028;-69
2022/10/07 08:21:51;;;;;;;18.45;3.10;;;12.50;99.90;;;;;;5066928;28;20539;-68
2022/10/07 08:24:17;;;;;;;17.33;2.65;;;12.50;99.90;;;;;;5067369;28;20373;-68
2022/10/07 08:26:43;;;;;;;13.07;3.67;;;12.60;99.90;;;;;;5068676;28;20385;-69
2022/10/07 08:29:09;;;;;;;20.48;3.45;;;12.70;99.90;;;;;;5065795;28;20016;-68
2022/10/07 08:31:35;;;;;;;12.75;2.90;;;12.80;99.90;;;;;;5066173;28;20031;-69
2022/10/07 08:34:03;;;;;;;16.48;2.83;;;12.90;99.90;;;;;;5057847;28;20024;-69
2022/10/07 08:36:34;;;;;;;15.35;3.08;;;13.00;99.90;;;;;;5061027;28;20083;-69
2022/10/07 08:39:01;;;;;;;17.20;3.10;;;13.10;99.90;;;;;;5060712;28;20070;-68
2022/10/07 08:41:33;;;;;;;11.23;2.88;;;13.20;99.90;;;;;;5063727;28;20127;-69
2022/10/07 08:44:18;;;;;;;15.82;3.40;;;13.30;99.90;;;;;;5059749;28;20048;-69
2022/10/07 08:46:52;;;;;;;14.32;3.20;;;13.40;99.90;;;;;;5060184;28;20044;-69
2022/10/07 08:49:45;;;;;;;17.50;3.00;;;13.50;99.90;;;;;;5064566;28;20032;-68
2022/10/07 08:52:31;;;;;;;14.98;3.63;;;13.50;99.90;;;;;;5062764;28;20084;-69
2022/10/07 08:54:58;;;;;;;15.75;2.92;;;13.70;99.90;;;;;;5060055;28;20033;-69
2022/10/07 08:57:49;;;;;;;19.55;3.83;;;13.80;99.90;;;;;;5059381;28;20032;-69
2022/10/07 09:00:19;;;;;;;15.25;3.20;;;13.90;99.90;;;;;;5065869;28;20100;-69
2022/10/07 09:03:15;;;;;;;16.23;3.50;;;14.00;99.90;;;;;;5064862;28;20466;-69
2022/10/07 09:05:44;;;;;;;19.35;3.65;;;14.10;99.90;;;;;;5076941;28;20024;-69
2022/10/07 09:08:27;;;;;;;17.02;3.53;;;14.20;99.90;;;;;;5060536;28;20021;-69
2022/10/07 09:10:55;;;;;;;14.60;3.03;;;14.20;99.90;;;;;;5062206;28;20017;-70
2022/10/07 09:13:29;;;;;;;19.63;3.28;;;14.40;99.90;;;;;;5057607;28;20032;-69
2022/10/07 09:16:02;;;;;;;18.67;3.65;;;14.40;99.90;;;;;;5063748;28;20039;-69
2022/10/07 09:18:36;;;;;;;12.23;2.92;;;14.50;99.90;;;;;;5065638;28;20041;-69
2022/10/07 09:21:07;;;;;;;16.63;3.13;;;14.70;99.90;;;;;;5061000;28;20037;-69
2022/10/07 09:23:35;;;;;;;10.80;3.25;;;14.80;99.90;;;;;;5065724;28;20021;-69
2022/10/07 09:26:04;;;;;;;16.15;3.05;;;15.00;99.90;;;;;;5059065;28;20025;-69
2022/10/07 09:28:32;;;;;;;19.35;3.20;;;15.10;99.90;;;;;;5067237;28;20025;-69
2022/10/07 09:30:59;;;;;;;10.07;2.97;;;15.30;99.90;;;;;;5071374;28;20032;-70
2022/10/07 09:33:26;;;;;;;12.82;3.30;;;15.50;99.90;;;;;;5062821;28;20025;-70
2022/10/07 09:36:03;;;;;;;15.15;3.13;;;15.60;99.90;;;;;;5067685;28;20031;-69
2022/10/07 09:38:43;;;;;;;12.07;2.35;;;15.70;99.90;;;;;;5061742;28;20048;-68
2022/10/07 09:41:30;;;;;;;15.50;2.92;;;15.80;99.90;;;;;;5071377;28;20582;-69
2022/10/07 09:43:56;;;;;;;12.45;3.03;;;16.00;99.90;;;;;;5065230;28;20028;-70
2022/10/07 09:46:46;;;;;;;16.75;2.95;;;16.00;99.90;;;;;;5060773;28;20044;-69
2022/10/07 09:49:40;;;;;;;51.55;5.22;;;16.10;99.90;;;;;;5069165;28;20029;-73
2022/10/07 09:52:14;;;;;;;11.57;3.08;;;16.20;99.90;;;;;;5070789;28;20024;-68
2022/10/07 09:54:41;;;;;;;20.05;3.78;;;16.30;99.90;;;;;;5064217;28;20111;-70
2022/10/07 09:57:28;;;;;;;10.80;2.70;;;16.40;99.90;;;;;;5060834;28;20097;-70
2022/10/07 10:00:24;;;;;;;14.00;2.85;;;16.50;99.90;;;;;;5066905;28;20500;-70
2022/10/07 10:03:10;;;;;;;11.55;2.28;;;16.50;99.90;;;;;;5064346;28;20071;-70
2022/10/07 10:06:11;;;;;;;12.63;3.50;;;16.60;99.90;;;;;;5059241;28;20032;-70
2022/10/07 10:08:42;;;;;;;20.52;3.85;;;16.70;99.90;;;;;;5062757;28;20440;-71
2022/10/07 10:11:24;;;;;;;21.65;3.85;;;16.90;99.90;;;;;;5063356;28;20108;-71
2022/10/07 10:13:51;;;;;;;17.90;2.88;;;17.00;99.90;;;;;;5068712;28;20047;-70
2022/10/07 10:16:36;;;;;;;13.60;2.85;;;17.10;99.90;;;;;;5045026;28;20035;-70
2022/10/07 10:19:04;;;;;;;13.55;2.97;;;17.20;99.90;;;;;;5058315;28;20091;-70
2022/10/07 10:21:35;;;;;;;15.30;3.28;;;17.40;99.90;;;;;;5067195;28;20085;-70
2022/10/07 10:24:09;;;;;;;13.70;3.35;;;17.50;99.90;;;;;;5064666;28;20108;-70
2022/10/07 10:27:00;;;;;;;11.85;2.75;;;17.60;99.90;;;;;;5070027;28;20052;-70
2022/10/07 10:29:56;;;;;;;13.57;2.55;;;17.70;99.90;;;;;;5069942;28;20279;-70
2022/10/07 10:32:38;;;;;;;22.98;3.80;;;17.80;99.90;;;;;;5066348;28;20029;-70
2022/10/07 10:35:26;;;;;;;15.93;2.63;;;17.80;99.90;;;;;;5073403;28;20017;-70
2022/10/07 10:38:31;;;;;;;10.73;2.97;;;17.90;99.90;;;;;;5071057;28;20036;-71
2022/10/07 10:41:06;;;;;;;12.05;3.00;;;18.00;99.90;;;;;;5077588;28;20040;-70
2022/10/07 10:43:52;;;;;;;19.27;3.10;;;18.10;99.90;;;;;;5087790;28;20017;-70
2022/10/07 10:46:51;;;;;;;14.77;2.92;;;18.20;99.90;;;;;;5067720;28;20072;-70
2022/10/07 10:49:24;;;;;;;19.88;3.20;;;18.30;99.90;;;;;;5062812;28;20060;-71
2022/10/07 10:51:58;;;;;;;10.25;2.58;;;18.40;99.90;;;;;;5078211;28;20024;-70
2022/10/07 10:55:03;;;;;;;20.77;3.65;;;18.50;99.90;;;;;;5063415;28;20032;-70
2022/10/07 10:57:56;;;;;;;10.38;3.35;;;18.50;99.90;;;;;;5070558;28;20078;-70
2022/10/07 11:00:22;;;;;;;16.70;2.70;;;18.60;99.90;;;;;;5075681;28;20441;-70
2022/10/07 11:03:14;;;;;;;12.98;2.70;;;18.70;99.90;;;;;;5071240;28;20021;-71
2022/10/07 11:05:41;;;;;;;11.10;2.20;;;18.80;99.90;;;;;;5084759;28;20032;-71
2022/10/07 11:08:30;;;;;;;10.52;2.80;;;18.90;99.90;;;;;;5083888;28;20055;-69
2022/10/07 11:11:05;;;;;;;11.07;2.33;;;18.90;99.90;;;;;;5066175;28;20033;-69
2022/10/07 11:13:57;;;;;;;12.93;3.15;;;19.00;99.90;;;;;;5084211;28;20025;-69
2022/10/07 11:16:43;;;;;;;17.33;3.53;;;19.10;99.90;;;;;;5060450;28;20119;-69
2022/10/07 11:19:21;;;;;;;13.38;2.75;;;19.00;99.90;;;;;;5060044;28;20435;-69
2022/10/07 11:21:53;;;;;;;15.05;3.47;;;18.80;99.90;;;;;;5076741;28;20036;-69
2022/10/07 11:24:49;;;;;;;9.77;2.42;;;19.00;99.90;;;;;;5079738;28;20397;-69
2022/10/07 11:27:33;;;;;;;12.95;2.97;;;19.00;99.90;;;;;;5054039;28;20033;-69
2022/10/07 11:30:06;;;;;;;16.50;3.53;;;19.20;99.90;;;;;;5072603;28;20020;-70
2022/10/07 11:32:54;;;;;;;9.30;2.85;;;19.20;99.90;;;;;;5070946;28;20363;-69
2022/10/07 11:35:35;;;;;;;18.90;3.17;;;19.20;99.90;;;;;;5063345;28;20031;-69
2022/10/07 11:38:09;;;;;;;8.73;2.55;;;19.30;99.90;;;;;;5075511;28;20029;-70
2022/10/07 11:40:46;;;;;;;15.15;2.95;;;19.30;99.90;;;;;;5078153;28;20032;-75
2022/10/07 11:43:36;;;;;;;15.65;2.70;;;19.30;99.90;;;;;;5058693;28;20096;-70
2022/10/07 11:46:19;;;;;;;15.05;2.78;;;19.10;99.90;;;;;;5059970;28;20477;-69
2022/10/07 11:48:48;;;;;;;;;;;19.20;99.90;;;;;;5087013;28;20020;-70
2022/10/07 11:51:27;;;;;;;11.38;2.33;;;19.30;99.90;;;;;;5061554;28;19908;-70
2022/10/07 11:54:01;;;;;;;13.07;2.45;;;19.40;99.90;;;;;;5082618;28;20416;-70
2022/10/07 11:56:43;;;;;;;15.70;2.20;;;19.50;99.90;;;;;;5085119;28;20028;-69
2022/10/07 11:59:28;;;;;;;7.63;2.83;;;19.60;99.90;;;;;;5059874;28;20095;-70
2022/10/07 12:01:54;;;;;;;10.15;2.55;;;19.50;99.90;;;;;;5082918;28;20043;-70
2022/10/07 12:04:28;;;;;;;10.45;2.53;;;19.60;99.90;;;;;;5082793;28;20020;-69
2022/10/07 12:07:31;;;;;;;15.18;2.85;;;19.60;99.90;;;;;;5089149;28;20050;-69
2022/10/07 12:10:03;;;;;;;;;;;19.60;99.90;;;;;;5083188;28;20400;-69
2022/10/07 12:12:41;;;;;;;11.32;2.53;;;19.60;99.90;;;;;;5078095;28;19950;-69
2022/10/07 12:15:29;;;;;;;15.07;2.90;;;19.70;99.90;;;;;;5087101;28;20033;-70
2022/10/07 12:18:16;;;;;;;5.70;2.05;;;19.60;99.90;;;;;;5067150;28;20053;-69
2022/10/07 12:20:53;;;;;;;12.80;2.50;;;19.60;99.90;;;;;;5068526;28;20544;-70
2022/10/07 12:23:19;;;;;;;12.27;2.63;;;19.70;99.90;;;;;;5061980;28;20046;-70
2022/10/07 12:25:59;;;;;;;10.80;2.13;;;19.60;99.90;;;;;;5089698;28;20032;-70
2022/10/07 12:28:40;;;;;;;11.85;2.53;;;19.50;99.90;;;;;;5078373;28;20473;-70
2022/10/07 12:31:12;;;;;;;11.60;2.17;;;19.40;99.90;;;;;;5088835;28;20508;-70
2022/10/07 12:33:59;;;;;;;14.05;2.60;;;19.50;99.90;;;;;;5064418;28;20101;-70
2022/10/07 12:36:27;;;;;;;10.10;2.50;;;19.50;99.90;;;;;;5063934;28;20069;-70
2022/10/07 12:38:55;;;;;;;8.45;2.55;;;19.40;99.90;;;;;;5077717;28;20020;-70
2022/10/07 12:41:34;;;;;;;8.65;2.10;;;19.10;99.90;;;;;;5082641;28;20092;-70
2022/10/07 12:44:35;;;;;;;12.75;2.97;;;19.10;99.90;;;;;;5081302;28;20028;-69
2022/10/07 12:47:09;;;;;;;13.63;2.30;;;19.10;99.90;;;;;;5062297;28;20025;-70
2022/10/07 12:49:53;;;;;;;20.92;3.35;;;19.10;99.90;;;;;;5074359;28;20028;-70
2022/10/07 12:52:28;;;;;;;8.32;2.40;;;19.00;99.90;;;;;;5064927;28;20037;-71
2022/10/07 12:54:59;;;;;;;8.38;2.60;;;19.00;99.90;;;;;;5067836;28;20021;-70
2022/10/07 12:57:32;;;;;;;14.57;2.78;;;19.00;99.90;;;;;;5060815;28;20493;-70
2022/10/07 13:00:14;;;;;;;9.98;2.28;;;19.10;99.90;;;;;;5072703;28;20021;-70
2022/10/07 13:02:45;;;;;;;8.27;2.15;;;19.10;99.90;;;;;;5060969;28;20029;-70
2022/10/07 13:05:33;;;;;;;9.75;2.63;;;19.20;99.90;;;;;;5069257;28;20480;-70
2022/10/07 13:08:33;;;;;;;8.90;2.45;;;19.20;99.90;;;;;;5066096;28;20385;-70